createdAt,value
2023-05-20T00:02:35.398Z,11.20
2023-05-20T00:12:38.953Z,11.20
2023-05-20T00:22:42.561Z,11.16
2023-05-20T00:32:46.443Z,11.10
2023-05-20T00:42:50.363Z,11.12
2023-05-20T00:52:54.824Z,11.18
2023-05-20T01:02:58.542Z,11.21
2023-05-20T01:13:04.808Z,11.18
2023-05-20T01:23:08.792Z,11.11
2023-05-20T01:33:14.680Z,11.09
2023-05-20T01:43:18.977Z,11.11
2023-05-20T01:53:22.540Z,11.16
2023-05-20T02:03:35.545Z,11.18
2023-05-20T02:13:39.387Z,11.21
2023-05-20T02:23:42.973Z,11.25
2023-05-20T02:33:46.519Z,11.29
2023-05-20T02:43:50.117Z,11.31
2023-05-20T02:53:54.378Z,11.33
2023-05-20T03:03:58.437Z,11.35
2023-05-20T03:14:03.370Z,11.37
2023-05-20T03:24:07.434Z,11.41
2023-05-20T03:34:10.948Z,11.43
2023-05-20T03:44:14.592Z,11.44
2023-05-20T03:54:18.583Z,11.44
2023-05-20T04:04:25.837Z,11.45
2023-05-20T04:14:29.394Z,11.48
2023-05-20T04:24:32.927Z,11.55
2023-05-20T04:34:36.794Z,11.66
2023-05-20T04:44:42.306Z,11.83
2023-05-20T04:55:05.977Z,11.88
2023-05-20T05:05:09.621Z,11.91
2023-05-20T05:15:13.540Z,12.01
2023-05-20T05:25:17.467Z,12.08
2023-05-20T05:35:24.774Z,12.16
2023-05-20T05:45:31.954Z,12.29
2023-05-20T05:55:36.266Z,12.35
2023-05-20T06:05:40.111Z,12.55
2023-05-20T06:15:44.028Z,12.67
2023-05-20T06:25:48.444Z,12.78
2023-05-20T06:35:52.004Z,12.94
2023-05-20T06:45:55.714Z,13.16
2023-05-20T06:55:59.510Z,13.28
2023-05-20T07:06:02.796Z,13.49
2023-05-20T07:16:10.483Z,13.73
2023-05-20T07:26:15.051Z,13.79
2023-05-20T07:36:18.761Z,13.88
2023-05-20T07:46:22.065Z,14.04
2023-05-20T07:56:29.238Z,14.09
2023-05-20T08:06:33.181Z,14.40
2023-05-20T08:16:36.800Z,14.81
2023-05-20T08:26:43.859Z,15.15
2023-05-20T08:36:47.649Z,15.42
2023-05-20T08:46:51.912Z,15.68
2023-05-20T08:56:56.593Z,15.81
2023-05-20T09:07:03.311Z,15.99
2023-05-20T09:17:12.310Z,16.15
2023-05-20T09:27:16.594Z,16.21
2023-05-20T09:37:22.188Z,16.39
2023-05-20T09:47:27.230Z,16.61
2023-05-20T09:57:31.840Z,16.92
2023-05-20T10:08:08.497Z,17.29
2023-05-20T10:18:19.502Z,17.67
2023-05-20T10:28:28.927Z,17.75
2023-05-20T10:38:32.616Z,18.07
2023-05-20T10:48:36.497Z,18.69
2023-05-20T10:58:44.335Z,18.81
2023-05-20T11:08:47.896Z,19.19
2023-05-20T11:18:51.600Z,19.49
2023-05-20T11:28:56.680Z,19.28
2023-05-20T11:39:05.113Z,19.02
2023-05-20T11:49:09.456Z,19.38
2023-05-20T11:59:15.441Z,19.43
2023-05-20T12:09:23.089Z,19.62
2023-05-20T12:19:28.135Z,19.79
2023-05-20T12:29:32.127Z,20.02
2023-05-20T12:39:36.219Z,20.22
2023-05-20T12:49:40.056Z,20.46
2023-05-20T12:59:43.252Z,20.70
2023-05-20T13:09:46.952Z,20.95
2023-05-20T13:19:50.851Z,21.14
2023-05-20T13:29:54.502Z,21.25
2023-05-20T13:39:58.590Z,21.48
2023-05-20T13:50:07.771Z,21.70
2023-05-20T14:00:13.375Z,21.69
2023-05-20T14:10:17.312Z,21.75
2023-05-20T14:20:24.400Z,21.91
2023-05-20T14:30:32.028Z,22.03
2023-05-20T14:40:36.083Z,22.11
2023-05-20T14:50:40.221Z,22.21
2023-05-20T15:00:43.397Z,22.22
2023-05-20T15:10:49.978Z,22.31
2023-05-20T15:32:55.649Z,22.40
2023-05-20T15:42:59.884Z,22.44
2023-05-20T15:53:07.168Z,22.43
2023-05-20T16:03:10.907Z,22.36
2023-05-20T16:13:14.977Z,22.23
2023-05-20T16:23:22.131Z,22.13
2023-05-20T16:33:31.510Z,21.95
2023-05-20T16:43:35.162Z,21.66
2023-05-20T16:53:39.113Z,21.40
2023-05-20T17:03:42.776Z,21.28
2023-05-20T17:13:46.587Z,21.19
2023-05-20T17:23:50.639Z,21.04
2023-05-20T17:33:54.623Z,20.90
2023-05-20T17:43:58.528Z,20.75
2023-05-20T17:54:05.896Z,20.52
2023-05-20T18:04:13.485Z,20.32
2023-05-20T18:24:20.573Z,19.83
2023-05-20T18:34:28.328Z,19.51
2023-05-20T18:54:36.288Z,18.87
2023-05-20T19:04:40.261Z,18.64
2023-05-20T19:14:44.508Z,18.49
2023-05-20T19:24:48.216Z,18.38
2023-05-20T19:34:52.200Z,18.24
2023-05-20T19:44:55.950Z,18.11
2023-05-20T19:55:00.547Z,17.86
2023-05-20T20:05:06.787Z,17.59
2023-05-20T20:15:12.458Z,17.32
2023-05-20T20:25:17.197Z,17.10
2023-05-20T20:35:21.222Z,16.84
2023-05-20T20:45:24.890Z,16.56
2023-05-20T20:55:28.878Z,16.35
2023-05-20T21:05:35.158Z,16.20
2023-05-20T21:15:39.093Z,16.08
2023-05-20T21:25:42.675Z,15.89
2023-05-20T21:35:46.359Z,15.76
2023-05-20T21:45:50.369Z,15.71
2023-05-20T21:55:54.476Z,15.63
2023-05-20T22:05:57.915Z,15.45
2023-05-20T22:26:09.367Z,15.10
2023-05-20T22:36:13.403Z,15.01
2023-05-20T22:46:17.647Z,14.92
2023-05-20T22:56:21.779Z,14.76
2023-05-20T23:06:26.396Z,14.64
2023-05-20T23:16:31.142Z,14.56
2023-05-20T23:26:37.100Z,14.52
2023-05-20T23:36:45.216Z,14.38
2023-05-20T23:47:03.587Z,13.91
2023-05-20T23:57:07.982Z,13.29
